Terminal Aerodrome Forecast
Issued by NWS Mt. Holly, NJ

Home | Current Version | Previous Version | Text Only | Print | Product List | Glossary On
Versions: 1 2 3 4 5 6 7 8 9 10 11 12 13 14 15 16 17 18 19 20 21 22
316
FTUS41 KPHI 241120
TAFACY
TAF
KACY 241120Z 2412/2512 33005KT P6SM -SHRA BKN050 OVC100
     FM241500 28006KT P6SM SCT040 BKN100
      TEMPO 2415/2417 -SHRA
     FM241700 29009KT P6SM BKN050 OVC100
     FM250000 25004KT P6SM SCT200
     FM250200 VRB02KT P6SM SKC
     FM250800 VRB02KT 3SM BR SKC=

USA.gov is the U.S. government's official web portal to all federal, state and local government web resources and services.